Reportages photos

Connexion

21km

21 Km Trail de la Faience du 19/04/15 (Réelle 21,6)
Rang Dossard Nom Prénom Temps Cat Rang Cat Ecart Ecart Cat Club Vitesse Km/h Temps au Km
1 274 BOULOGNE Jérémy 01:26:37 V1M 1 00:00:00 00:00:00 Pompiers desvres 14,962 04:01
2 431 MEATS Antoine 01:29:02 SEM 1 00:02:25 00:00:00 0 14,556 04:07
3 430 MATRINGHEN Tony 01:29:57 SEM 2 00:03:20 00:00:55 Triathlon club boulonnais 14,408 04:10
4 275 BOURDON Gilbert 01:31:39 SEM 3 00:05:02 00:02:37 AC Outreau 14,141 04:15
5 485 TREMBLAY Arnaud 01:36:11 SEM 4 00:09:34 00:07:09 NEC 13,474 04:27
6 411 LEROUX Guillaume 01:37:17 SEM 5 00:10:40 00:08:15 ID COM 13,322 04:30
7 337 DUBOIS Tony 01:39:14 V1M 2 00:12:37 00:12:37 LYS CALAIS TRIATHLON 13,060 04:36
8 464 REMBUR Daniel 01:39:33 V2M 1 00:12:56 00:00:00 TOA 13,019 04:37
9 456 QUEVAL Jean Jacques 01:40:04 V2M 2 00:13:27 00:00:31 MARCKATHLON 12,951 04:38
10 372 HAIGNERE Wiliam 01:40:28 SEM 6 00:13:51 00:11:26 Cermix 12,900 04:39
11 409 LEPRETRE Xavier 01:40:51 SEM 7 00:14:14 00:11:49 0 12,851 04:40
12 327 DESCHOUWER Nicolas 01:41:08 SEM 8 00:14:31 00:12:06 Jogging club licquois 12,815 04:41
13 383 HOYER Johnny 01:41:11 SEM 9 00:14:34 00:12:09 0 12,808 04:41
14 461 RAUX Thibault 01:41:38 SEM 10 00:15:01 00:12:36 0 12,752 04:42
15 497 VILLEZ Morgan 01:41:39 SEM 11 00:15:02 00:12:37 0 12,750 04:42
16 417 LOEUILLLIEUX Pierre 01:42:32 SEM 12 00:15:55 00:13:30 0 12,640 04:45
17 455 PRZYBYLSKI Guillaume 01:42:41 SEM 13 00:16:04 00:13:39 AC Outreau 12,621 04:45
18 476 SAVARY Thomas 01:43:02 SEM 14 00:16:25 00:14:00 0 12,578 04:46
19 299 DA FONSECA GUERRA Frédéric 01:43:08 SEM 15 00:16:31 00:14:06 RUNNING CLUB DE CORBIE 12,566 04:46
20 326 DESACHY Marc 01:43:24 V1M 3 00:16:47 00:16:47 AC Outreau 12,534 04:47
21 302 DANEL Marc Andre 01:43:34 V1M 4 00:16:57 00:16:57 MARCKATHLON 12,514 04:48
22 319 DELATTRE Johann 01:44:19 SEM 16 00:17:42 00:15:17 AC Outreau 12,424 04:50
23 262 BELLENGUEZ Julien 01:44:37 SEM 17 00:18:00 00:15:35 TRIATHLON CLUB BOULONAIS 12,388 04:51
24 483 THOMAS Pascal 01:45:05 V2M 3 00:18:28 00:05:32 ESCAP AVENTURE 12,333 04:52
25 515 JACQUEMOD Mickael 01:45:09 SEM 18 00:18:32 00:16:07 Triathlon Boulogne 12,325 04:52
26 313 DEFOSSE Cedric 01:45:31 V1M 5 00:18:54 00:18:54 0 12,282 04:53
27 322 DELPIERRE Fred 01:45:31 SEM 19 00:18:54 00:16:29 0 12,282 04:53
28 504 FRANCOIS Gilbert 01:45:36 V2M 4 00:18:59 00:06:03 Marc'athlon 12,273 04:53
29 419 LUCAS Jean Henri 01:45:48 SEM 20 00:19:11 00:16:46 GRAVELINES TRIATHLON 12,250 04:54
30 321 DELETROY Benoit 01:46:32 SEM 21 00:19:55 00:17:30 Ô.ASIA 12,165 04:56
31 486 VAILLANT Jérome 01:47:14 SEM 22 00:20:37 00:18:12 Team trail 62 12,086 04:58
32 375 HAUDIQUET Jérome 01:47:15 SEM 23 00:20:38 00:18:13 Team trail 62 12,084 04:58
33 462 RAVENT Mathieu 01:47:20 SEM 24 00:20:43 00:18:18 0 12,075 04:58
34 263 BELLEVILLE Philippe 01:47:28 SEM 25 00:20:51 00:18:26 MARCKATHLON 12,060 04:59
35 414 LIMOUSIN Stephane 01:47:29 V1M 6 00:20:52 00:20:52 PATRIOTE CROSS DE GUINES 12,058 04:59
36 367 GLAÇON Guillaume 01:47:44 SEM 26 00:21:07 00:18:42 0 12,030 04:59
37 278 BRILLARD Sébastien 01:47:59 SEM 27 00:21:22 00:18:57 AC Outreau 12,002 05:00
38 401 LEBLOND Arnaud 01:49:43 V1M 7 00:23:06 00:23:06 LE Drapeau 11,812 05:05
39 293 CHARLES Mathieu 01:49:46 SEM 28 00:23:09 00:20:44 0 11,807 05:05
40 467 RINGUET Frederic 01:49:54 V2M 5 00:23:17 00:10:21 0 11,793 05:05
41 252 ACKET Sylvain 01:50:17 V1M 8 00:23:40 00:23:40 0 11,752 05:06
42 516 LEROY Richard 01:50:21 SEM 29 00:23:44 00:21:19 Triathlon Montreuil 11,744 05:07
43 482 TETARD Emmanuel 01:50:42 SEM 30 00:24:05 00:21:40 OMNISPORTS DE CAMPAGNE LES HESDIN 11,707 05:07
44 334 DOCQUOIS Michel 01:50:51 V1M 9 00:24:14 00:24:14 LE Drapeau 11,691 05:08
45 291 CHAPELET Daniel 01:51:12 V1M 10 00:24:35 00:24:35 0 11,655 05:09
46 333 DIEVAL Jacques 01:51:14 V1M 11 00:24:37 00:24:37 0 11,651 05:09
47 341 DUCROCQ Christophe 01:51:33 V1M 12 00:24:56 00:24:56 Wimereux RC 11,618 05:10
48 520 MALHER Rémi 01:51:35 SEM 31 00:24:58 00:22:33 0 11,615 05:10
49 395 LAURENT Christophe 01:51:38 V1M 13 00:25:01 00:25:01 BERCK ATHLETISME COTE D'OPALE 11,609 05:10
50 324 DEMARTHE Ludo 01:51:42 V1M 14 00:25:05 00:25:05 ASUD 11,603 05:10
51 285 CABY Raphael 01:51:57 V1M 15 00:25:20 00:25:20 Escap'aventure 11,577 05:11
52 296 COLIN Kévin 01:52:01 SEM 32 00:25:24 00:22:59 0 11,570 05:11
53 413 LIGNIER Mathieu 01:52:23 SEM 33 00:25:46 00:23:21 ARC International 11,532 05:12
54 469 ROGERE Marc 01:52:30 SEM 34 00:25:53 00:23:28 AC Outreau 11,520 05:12
55 329 DEWEER Nicolas 01:52:31 SEM 35 00:25:54 00:23:29 0 11,518 05:13
56 488 VAMOUR Nicolas 01:52:34 SEM 36 00:25:57 00:23:32 Les pointures du septentrion 11,513 05:13
57 433 MIEZE Romuald 01:52:53 SEM 37 00:26:16 00:23:51 ASUD 11,481 05:14
58 314 DEFRANCE Fabrice 01:53:23 V1M 16 00:26:46 00:26:46 0 11,430 05:15
59 260 BECAERT Loic 01:53:24 SEM 38 00:26:47 00:24:22 0 11,429 05:15
60 288 CARON Kevin 01:53:26 SEM 39 00:26:49 00:24:24 0 11,425 05:15
61 438 OFFE Nicolas 01:53:58 V2M 6 00:27:21 00:14:25 Fort Mardyck 11,372 05:17
62 512 LEMAITRE Laurent 01:54:18 V1M 17 00:27:41 00:27:41 0 11,339 05:17
63 404 LEFEBVRE Damien 01:54:23 SEM 40 00:27:46 00:25:21 ATSCAF Dunkerque 11,330 05:18
64 398 LEBAS Eric 01:54:24 V1M 18 00:27:47 00:27:47 Team trail 62 11,329 05:18
65 380 HOLLEBECQUE Martin 01:54:44 SEM 41 00:28:07 00:25:42 Wimereux RC 11,296 05:19
66 509 BOUVOT Cyrille 01:54:59 SEM 42 00:28:22 00:25:57 0 11,271 05:19
67 394 LASSALLE Jean Yves 01:55:13 V1M 19 00:28:36 00:28:36 Ô.ASIA 11,248 05:20
68 279 BRUCALE Armel 01:55:20 V1M 20 00:28:43 00:28:43 USL JOGGING 11,237 05:20
69 272 BOULANGER Julien 01:55:20 V1M 21 00:28:43 00:28:43 USL JOGGING LEFFRINCKOUCKE 11,237 05:20
70 286 CALON Christian 01:55:44 V2M 7 00:29:07 00:16:11 AC Outreau 11,198 05:21
71 253 AMICEL Florent 01:55:51 SEM 43 00:29:14 00:26:49 TRIATHLON LIEVIN 11,187 05:22
72 484 TILLIER Ludovic 01:55:52 SEM 44 00:29:15 00:26:50 Wimereux RC 11,185 05:22
73 521 LEFRANC Olivier 01:56:09 V1M 22 00:29:32 00:29:32 Saint Martin Athlétisme 11,158 05:23
74 487 VAMOUR Alain Robby 01:56:18 V2M 8 00:29:41 00:16:45 Pointures de septentrion 11,144 05:23
75 502 WIART Sébastien 01:56:20 SEM 45 00:29:43 00:27:18 0 11,140 05:23
76 353 FASQUEL Vincent 01:56:45 SEM 46 00:30:08 00:27:43 0 11,101 05:24
77 377 HENNUYER Christian 01:56:45 SEM 47 00:30:08 00:27:43 0 11,101 05:24
78 373 HARDOUIN Jean-François 01:56:45 V1M 23 00:30:08 00:30:08 Saint martin athlétisme 11,101 05:24
79 518 MANNESSIEZ Fabien 01:56:49 SEM 48 00:30:12 00:27:47 0 11,094 05:24
80 389 KAMINSKI Olivia 01:56:50 SEF 1 00:30:13 00:00:00 TOA 11,093 05:25
81 338 DUBOIS Thierry 01:56:57 V1M 24 00:30:20 00:30:20 RCE 11,082 05:25
82 281 LECERF Renaud 01:57:02 V1M 25 00:30:25 00:30:25 Escap'aventure 11,074 05:25
83 393 LANGAGNE Gaetan 01:57:12 SEM 49 00:30:35 00:28:10 AC Outreau 11,058 05:26
84 500 WATTEZ Eric 01:57:25 V2M 9 00:30:48 00:17:52 AC Outreau 11,038 05:26
85 335 DOURLENS Antoine 01:57:37 SEM 50 00:31:00 00:28:35 0 11,019 05:27
86 517 CHOQUET Sébastien 01:57:47 SEM 51 00:31:10 00:28:45 0 11,003 05:27
87 436 MISSIAEN Jean-Luc 01:57:59 V2M 10 00:31:22 00:18:26 ASUD 10,985 05:28
88 448 POPIEUL Simon 01:58:18 ESM 1 00:31:41 00:00:00 ASUD 10,955 05:29
89 331 DEZETTER Marc 01:58:21 SEM 52 00:31:44 00:29:19 0 10,951 05:29
90 459 RAUX Guillaume 01:58:35 SEM 53 00:31:58 00:29:33 0 10,929 05:29
91 347 DUHAMEL Maxime 01:58:44 SEM 54 00:32:07 00:29:42 0 10,915 05:30
92 356 FLECHEL Alixe 01:59:12 SEF 2 00:32:35 00:02:22 Gravelines triathlon 10,872 05:31
93 371 HAGNERE Olivier 01:59:18 V1M 26 00:32:41 00:32:41 SO Calais 10,863 05:31
94 280 BRUTSAERT Franck 01:59:25 V1M 27 00:32:48 00:32:48 ASUD 10,853 05:32
95 318 DELATTRE Bruno 01:59:28 V3M 1 00:32:51 00:00:00 0 10,848 05:32
96 315 DELABROYE Yann 01:59:35 V1M 28 00:32:58 00:32:58 ESCAP'AVENTURE 10,838 05:32
97 465 REMY Stéphane 01:59:43 V1M 29 00:33:06 00:33:06 0 10,826 05:33
98 303 DAUTRICOURT Emmanuel 01:59:55 V1M 30 00:33:18 00:33:18 0 10,808 05:33
99 478 SMIRNOV Sergueï 01:59:56 SEM 55 00:33:19 00:30:54 VALMO 10,806 05:33
100 292 CHARLES Daniel 02:00:36 V2M 11 00:33:59 00:21:03 0 10,746 05:35
101 336 DUBOIS Philippe 02:00:37 V1M 31 00:34:00 00:34:00 0 10,745 05:35
102 507 FAIT Benjamin 02:00:43 SEM 56 00:34:06 00:31:41 0 10,736 05:35
103 408 LENSEN Eric 02:00:46 V1M 32 00:34:09 00:34:09 PASS RUNNING 10,731 05:35
104 429 MARTIN David 02:00:56 SEM 57 00:34:19 00:31:54 VTT Wailly Beaucamp 10,717 05:36
105 364 GARENAUX François 02:00:56 V1M 33 00:34:19 00:34:19 Wimereux RC 10,717 05:36
106 416 LOEUILLIEUX Julien 02:01:28 SEM 58 00:34:51 00:32:26 Team trail 62 10,670 05:37
107 268 BLARET Laurent 02:01:42 V1M 34 00:35:05 00:35:05 0 10,649 05:38
108 425 MANGNIER Loïc 02:01:43 ESM 2 00:35:06 00:03:25 0 10,648 05:38
109 426 MAQUINGHEN Julien 02:01:57 SEM 59 00:35:20 00:32:55 0 10,627 05:39
110 287 CANNIE Franck 02:02:09 V1M 35 00:35:32 00:35:32 0 10,610 05:39
111 473 RYCKEBUSCH Emmanuel 02:02:37 SEM 60 00:36:00 00:33:35 0 10,570 05:41
112 513 BAILLET Christian 02:02:52 V2M 12 00:36:15 00:23:19 Sport plus 10,548 05:41
113 366 GHESQUIERE Ludovic 02:02:55 SEM 61 00:36:18 00:33:53 CAPONORD 10,544 05:41
114 447 PODEVIN Jean-Pierre 02:03:09 V2M 13 00:36:32 00:23:36 AC Outreau 10,524 05:42
115 359 FOURNY Jerome 02:03:15 V1M 36 00:36:38 00:36:38 ASUD 10,515 05:42
116 434 MIEZE Samuel 02:03:23 V1M 37 00:36:46 00:36:46 BLARINGHEM TRAIL 10,504 05:43
117 344 DUCROCQ Julien 02:03:23 SEM 62 00:36:46 00:34:21 0 10,504 05:43
118 348 DUMONT Ludovic 02:03:33 V1M 38 00:36:56 00:36:56 Wimereux RC 10,490 05:43
119 514 ROBBE Laetitia 02:03:44 SEF 3 00:37:07 00:06:54 0 10,474 05:44
120 283 BULOT Stephane 02:03:46 V1M 39 00:37:09 00:37:09 0 10,471 05:44
121 305 DEBOVE David 02:03:51 V1M 40 00:37:14 00:37:14 CS Nesles 10,464 05:44
122 511 HAVART Charles 02:04:02 V1M 41 00:37:25 00:37:25 Jogging club licquois 10,449 05:45
123 259 BAUCHART Hedwige 02:04:14 SEF 4 00:37:37 00:07:24 RUNNING CLUB DE CORBIE 10,432 05:45
124 323 DELVOYE Luc 02:04:23 V2M 14 00:37:46 00:24:50 Colembert 10,419 05:46
125 376 HENNEGRAEVE Nicolas 02:04:38 V1M 42 00:38:01 00:38:01 US Leffrrinckouke 10,399 05:46
126 384 JEANTON Bruno 02:04:49 SEM 63 00:38:12 00:35:47 0 10,383 05:47
127 368 GOMBERT Christophe 02:05:01 V1M 43 00:38:24 00:38:24 0 10,367 05:47
128 451 PROTIN Dominique 02:05:01 V2M 15 00:38:24 00:25:28 0 10,367 05:47
129 442 PETA Jeanne Estelle 02:05:07 V1F 1 00:38:30 00:00:00 LE Drapeau 10,358 05:48
130 444 PINA BORGES Julio 02:05:15 V1M 44 00:38:38 00:38:38 0 10,347 05:48
131 418 LOOTVOET Franck 02:05:18 V1M 45 00:38:41 00:38:41 RC Eperlecques 10,343 05:48
132 261 BELLANGER Lucien 02:05:31 ESM 3 00:38:54 00:07:13 0 10,325 05:49
133 379 HOCQ Bruno 02:05:40 V1M 46 00:39:03 00:39:03 AC Outreau 10,313 05:49
134 289 CAUDRELIER Sabine 02:05:40 V1F 2 00:39:03 00:00:33 0 10,313 05:49
135 492 VANHEDE Patrice 02:05:46 V1M 47 00:39:09 00:39:09 Blaringhem trail 10,305 05:49
136 415 LOE Denis 02:05:51 V1M 48 00:39:14 00:39:14 0 10,298 05:50
137 506 FARNWORTH Graeme 02:05:53 V1M 49 00:39:16 00:39:16 AC Capellois 10,295 05:50
138 382 HOUPIN Denis 02:05:59 V1M 50 00:39:22 00:39:22 0 10,287 05:50
139 352 EVRARD Denis 02:06:07 V1M 51 00:39:30 00:39:30 JOGGING CLUB LICQUOIS 10,276 05:50
140 294 CHARTAUX Raphael 02:06:09 V1M 52 00:39:32 00:39:32 CS Nesles 10,273 05:50
141 298 COLLIER Guillaume 02:06:10 SEM 64 00:39:33 00:37:08 0 10,272 05:50
142 387 JOLY Gauthier 02:06:30 SEM 65 00:39:53 00:37:28 ASD Hesdin 10,245 05:51
143 474 SALON Patrick 02:06:49 V2M 16 00:40:12 00:27:16 LA CALOTERIE 10,219 05:52
144 402 LEBURGUE Guillaume 02:06:55 SEM 66 00:40:18 00:37:53 AC Outreau 10,211 05:53
145 358 FOURCROY Fanny 02:06:57 V1F 3 00:40:20 00:01:50 Wimereux RC 10,209 05:53
146 369 GRIGNON Michael 02:07:07 SEM 67 00:40:30 00:38:05 0 10,195 05:53
147 453 PRUVOST Claude 02:07:38 V1M 53 00:41:01 00:41:01 0 10,154 05:55
148 454 PRUVOST Sophie 02:07:38 JUF 1 00:41:01 00:00:00 0 10,154 05:55
149 423 MAILLOT Jean-Louis 02:07:42 V2M 17 00:41:05 00:28:09 AC Outreau 10,149 05:55
150 267 BIGOT Marie-Christine 02:08:12 V2F 1 00:41:35 00:00:00 0 10,109 05:56
151 481 TETARD Christophe 02:08:22 V1M 54 00:41:45 00:41:45 Pompiers desvres 10,096 05:57
152 428 MARTIN David 02:08:22 V1M 55 00:41:45 00:41:45 Pompiers desvres 10,096 05:57
153 494 VASSEUR François 02:08:39 V2M 18 00:42:02 00:29:06 Running club éperlecques 10,074 05:57
154 490 VANDENBERGUE Valérie 02:09:37 V1F 4 00:43:00 00:04:30 BACO 9,999 06:00
155 354 FATRAS Frédéric 02:10:01 V1M 56 00:43:24 00:43:24 Colembert 9,968 06:01
156 397 LE BIHAN Grégory 02:10:11 SEM 68 00:43:34 00:41:09 0 9,955 06:02
157 284 BUQUET Stephane 02:10:22 V1M 57 00:43:45 00:43:45 LA CALOTERIE OMNISPORT 9,941 06:02
158 505 LEPRETRE Guillaume 02:10:38 V1M 58 00:44:01 00:44:01 0 9,921 06:03
159 524 FOURGEREUX Anne 02:10:41 SEF 5 00:44:04 00:13:51 0 9,917 06:03
160 525 PODEVIN Patrice 02:10:41 V2M 19 00:44:04 00:31:08 0 9,917 06:03
161 399 LEBAS Dominique 02:10:46 V2M 20 00:44:09 00:31:13 Colembert 9,911 06:03
162 362 FREMEAUX Yvan 02:10:50 V1M 59 00:44:13 00:44:13 0 9,906 06:03
163 519 BAILLY François 02:10:52 SEM 69 00:44:15 00:41:50 0 9,903 06:04
164 370 GRYMONPREZ Sandrine 02:11:06 V1F 5 00:44:29 00:05:59 0 9,886 06:04
165 282 BUE Christophe 02:11:07 SEM 70 00:44:30 00:42:05 0 9,884 06:04
166 443 PETITPREZ Thierry 02:11:23 V1M 60 00:44:46 00:44:46 0 9,864 06:05
167 420 MAES Etienne 02:11:35 V2M 21 00:44:58 00:32:02 Colembert 9,849 06:06
168 328 DEVULDER Michael 02:11:42 V1M 61 00:45:05 00:45:05 CROSS DUATHLON DU HARICOT 9,841 06:06
169 332 DHERBECOURT Christophe 02:11:43 V2M 22 00:45:06 00:32:10 TRIATHLON CLUB BOULONNAIS 9,839 06:06
170 508 CARON Aurélie 02:11:49 SEF 6 00:45:12 00:14:59 Blaringhem Trail 9,832 06:06
171 471 MACQUET Olivier 02:12:22 V1M 62 00:45:45 00:45:45 0 9,791 06:08
172 258 BANCHEREAU Laurent 02:13:17 V1M 63 00:46:40 00:46:40 0 9,724 06:10
173 361 FRANÇOIS Thomas 02:13:20 SEM 71 00:46:43 00:44:18 BACO BERCK ATHLÉTISME 9,720 06:10
174 390 KAMMER CALESSE Eva 02:13:21 V1F 6 00:46:44 00:08:14 0 9,719 06:10
175 427 MARTEL Mickael 02:13:23 SEM 72 00:46:46 00:44:21 Pompiers desvres 9,716 06:11
176 378 HIBON Andréa 02:13:24 ESF 1 00:46:47 00:00:00 Pompiers desvres 9,715 06:11
177 355 FIEVET VASSEUR Christelle 02:13:30 V1F 7 00:46:53 00:08:23 LE Drapeau 9,708 06:11
178 349 DUMONT Jérôme 02:14:01 V1M 64 00:47:24 00:47:24 0 9,670 06:12
179 405 LEJEUNE Charlotte 02:14:14 SEF 7 00:47:37 00:17:24 Wimereux RC 9,655 06:13
180 479 SPILMONT Hélène 02:14:14 SEF 8 00:47:37 00:17:24 Wimereux RC 9,655 06:13
181 350 DUPONT Philippe 02:14:19 V2M 23 00:47:42 00:34:46 Transpole 9,649 06:13
182 435 MINET Martin 02:14:29 SEM 73 00:47:52 00:45:27 Gravelines triathlon 9,637 06:14
183 300 DANEL Delphine 02:15:26 V1F 8 00:48:49 00:10:19 AUVERS ATHLÉTISME 9,569 06:16
184 495 VASSEUR Francois 02:15:33 V2M 24 00:48:56 00:36:00 0 9,561 06:17
185 325 DEMILLY Sébastien 02:15:40 SEM 74 00:49:03 00:46:38 Jogging club licquois 9,553 06:17
186 493 VASSEUR Ludovic 02:15:44 SEM 75 00:49:07 00:46:42 0 9,548 06:17
187 301 DANEL Laurent 02:16:06 V2M 25 00:49:29 00:36:33 AUVERS ATHLÉTISME 9,522 06:18
188 295 CHRETIEN Laurent 02:16:31 V2M 26 00:49:54 00:36:58 ASUD 9,493 06:19
189 440 OUINEZ Ali 02:16:38 V2M 27 00:50:01 00:37:05 BERCK ATHLÉTISME CÔTE D'OPALE 9,485 06:20
190 276 BOURNAILLIÉ Nicole 02:16:38 V3F 1 00:50:01 00:00:00 BERCK ATHLETISME COTE D'OPALE 9,485 06:20
191 360 FRANCOIS Romain 02:16:39 SEM 76 00:50:02 00:47:37 BACO 9,484 06:20
192 391 LABBÉ Tony 02:17:27 V1M 65 00:50:50 00:50:50 0 9,429 06:22
193 257 BAHEU Romain 02:17:41 SEM 77 00:51:04 00:48:39 AC Outreau 9,413 06:22
194 304 DEBAY Marine 02:17:41 SEF 9 00:51:04 00:20:51 AC Outreau 9,413 06:22
195 312 DEFOSSE Solène 02:18:03 SEF 10 00:51:26 00:21:13 US Leffrrinckouke 9,388 06:23
196 445 PINAT Jonathan 02:18:06 ESM 4 00:51:29 00:19:48 0 9,385 06:24
197 400 LEBECQ Loic 02:18:06 SEM 78 00:51:29 00:49:04 0 9,385 06:24
198 410 LEROUGE David 02:19:16 V1M 66 00:52:39 00:52:39 CS Nesles 9,306 06:27
199 256 AZZOUZ Isaac 02:19:46 ESM 5 00:53:09 00:21:28 Pompiers desvres 9,273 06:28
200 472 RUISSEAU Emmanuel 02:20:07 V1M 67 00:53:30 00:53:30 Z-TRAILERZ 9,249 06:29
201 316 DELANGUE Nicolas 02:20:07 V1M 68 00:53:30 00:53:30 0 9,249 06:29
202 271 BOUCHEZ Laurence 02:20:12 V1F 9 00:53:35 00:15:05 RUNNING CLUB EPERLECQUES 9,244 06:29
203 270 BOUCHEZ Emmanuel 02:20:13 V2M 28 00:53:36 00:40:40 RUNNING CLUB EPERLECQUES 9,243 06:29
204 406 LEMAITRE Hervé 02:20:22 V2M 29 00:53:45 00:40:49 0 9,233 06:30
205 496 VERHEYDE Laurent 02:21:06 V1M 69 00:54:29 00:54:29 USL JOGGING 9,185 06:32
206 255 ARSENE Guillaume 02:22:50 SEM 79 00:56:13 00:53:48 0 9,074 06:37
207 446 PLAYE François 02:22:55 V1M 70 00:56:18 00:56:18 Colembert 9,068 06:37
208 277 BRACQBIEN Maxime 02:23:16 SEM 80 00:56:39 00:54:14 0 9,046 06:38
209 470 ROLLET Mickael 02:23:17 SEM 81 00:56:40 00:54:15 0 9,045 06:38
210 363 FREZEL Nathalie 02:23:34 V1F 10 00:56:57 00:18:27 0 9,027 06:39
211 439 ORAVEC Maé 02:23:54 SEF 11 00:57:17 00:27:04 0 9,006 06:40
212 437 MOREL Christopher 02:24:41 SEM 82 00:58:04 00:55:39 0 8,957 06:42
213 499 WASIAK Richard 02:24:49 V1M 71 00:58:12 00:58:12 Julbo Familly 8,949 06:42
214 463 REANT Frédérique 02:24:51 V1F 11 00:58:14 00:19:44 Running club éperlecques 8,947 06:42
215 503 BLOND Grégory 02:24:52 V1M 72 00:58:15 00:58:15 0 8,946 06:42
216 290 CAZIN Thierry 02:24:53 V2M 30 00:58:16 00:45:20 Colembert 8,945 06:42
217 381 HOLUIGUE Florence 02:25:08 SEF 12 00:58:31 00:28:18 Colembert 8,930 06:43
218 424 MALAIZE Jean Paul 02:25:56 V2M 31 00:59:19 00:46:23 0 8,881 06:45
219 477 SERGENT Sophie 02:26:00 V1F 12 00:59:23 00:20:53 Colembert 8,877 06:46
220 345 DUCROQUET Michel 02:26:00 V3M 2 00:59:23 00:26:32 Colembert 8,877 06:46
221 320 DELENCLOS Marie 02:26:19 SEF 13 00:59:42 00:29:29 CAC 8,858 06:46
222 351 DUSSART Muriel 02:26:54 V2F 2 01:00:17 00:18:42 Colembert 8,822 06:48
223 396 LAVIE Betty 02:26:54 SEF 14 01:00:17 00:30:04 Touquet trail nature 8,822 06:48
224 480 SUEUR Jérome 02:27:14 ESM 6 01:00:37 00:28:56 Pompiers desvres 8,802 06:49
225 510 DEBOVE Béatrice 02:27:31 V2F 3 01:00:54 00:19:19 0 8,785 06:50
226 452 PRUVOST Patrick 02:27:33 V1M 73 01:00:56 01:00:56 0 8,783 06:50
227 522 VASSEUR Carole 02:28:24 V1F 13 01:01:47 00:23:17 0 8,733 06:52
228 523 VASSEUR Cathie 02:28:25 V1F 14 01:01:48 00:23:18 0 8,732 06:52
229 269 BONNAIRE Aurélien 02:28:29 ESM 7 01:01:52 00:30:11 0 8,728 06:52
230 441 PAGNIEZ Emmanuelle 02:31:02 SEF 15 01:04:25 00:34:12 0 8,581 07:00
231 466 RIFFARD Jean 02:32:52 V2M 32 01:06:15 00:53:19 Opale Trail Nature 8,478 07:05
232 309 DECLERCK Gonzague 02:33:43 V2M 33 01:07:06 00:54:10 OSA ATHLETISME 8,431 07:07
233 310 DECLERCK Veronique 02:33:43 V2F 4 01:07:06 00:25:31 OSA ATHLETISME 8,431 07:07
234 374 SORET Patrick 02:33:54 V2M 34 01:07:17 00:54:21 Colembert 8,421 07:07
235 432 METAYER Pascal 02:34:08 V1M 74 01:07:31 01:07:31 Colembert 8,408 07:08
236 251 ABBAL Marie-Eve 02:34:26 SEF 16 01:07:49 00:37:36 OA Hazebrouck 8,392 07:09
237 491 VANDERVEKEN Eric 02:34:43 V2M 35 01:08:06 00:55:10 0 8,377 07:10
238 422 MAILLARD Nadine 02:34:47 V3F 2 01:08:10 00:18:09 Les pink ladies 8,373 07:10
239 403 LECLERCQ Anne Marie 02:35:35 V3F 3 01:08:58 00:18:57 Saint martin athlétisme 8,330 07:12
240 308 DECLERCK Kévin 02:35:40 SEM 83 01:09:03 01:06:38 0 8,325 07:12
241 450 POURRE Pascal 02:36:14 V2M 36 01:09:37 00:56:41 0 8,295 07:14
242 342 DUCROCQ Ines 02:36:26 SEF 17 01:09:49 00:39:36 0 8,285 07:15
243 273 BOULET Pascale 02:36:37 V1F 15 01:10:00 00:31:30 Saint martin athlétisme 8,275 07:15
244 421 MAGNIER Béatrice 02:37:06 V2F 5 01:10:29 00:28:54 Les pink ladies 8,250 07:16
245 343 DUCROCQ Francoise 02:37:17 V2F 6 01:10:40 00:29:05 ASVA SANOFI 8,240 07:17
246 357 FODZO Eric 02:37:28 V1M 75 01:10:51 01:10:51 0 8,230 07:17
247 458 RAMONET Marc 02:38:35 V2M 37 01:11:58 00:59:02 Wimereux RC 8,172 07:21
248 468 ROCHARD Nathalie 02:40:52 V1F 16 01:14:15 00:35:45 0 8,056 07:27
249 392 LANCE Freddy 02:40:55 SEM 84 01:14:18 01:11:53 ID COM 8,054 07:27
250 457 RAMET Coralie 02:40:58 V1F 17 01:14:21 00:35:51 La caloterie omnisports 8,051 07:27
251 254 ANDEL Céline 02:42:00 SEF 18 01:15:23 00:45:10 Saint martin athlétisme 8,000 07:30
252 340 DUCROCQ Carole 02:42:03 V1F 18 01:15:26 00:36:56 Wimereux RC 7,998 07:30
253 460 RAUX André 02:43:11 V3M 3 01:16:34 00:43:43 0 7,942 07:33
254 306 DEBOVE Isabelle 02:43:11 V2F 7 01:16:34 00:34:59 0 7,942 07:33
255 407 LEMER Louis 02:44:25 ESM 8 01:17:48 00:46:07 0 7,882 07:37
256 297 COLIN Richard 02:48:12 V3M 4 01:21:35 00:48:44 ASUD 7,705 07:47
257 317 DELANNOY Aurélie 02:52:04 SEF 19 01:25:27 00:55:14 AC Outreau 7,532 07:58
258 365 GENNEBAUD Carole 02:52:04 SEF 20 01:25:27 00:55:14 0 7,532 07:58
259 412 LIGNIER Marie France 03:07:08 V4F 1 01:40:31 00:00:00 Les pink ladies 6,926 08:40
260 385 JOLY Alexandra 03:16:52 SEM 85 01:50:15 01:47:50 ID COM 6,583 09:07
261 386 JOLY Emilie 03:16:52 SEF 21 01:50:15 01:20:02 0 6,583 09:07